Visit the IPS Meteostar Home Page 2IPSM Phoenix Sky Harbor International Airport FORECAST

Phoenix, Arizona

2 miles away at Phoenix Sky Harbor International Airport 9:51 GMT

Weather:

Clear

Wind:

E 8 mph

Temperature:

61 ° F

Pressure:

29.92

Dew Point:

41 ° F

Relative Humidity:

47

Feels Like:

61 ° F

Visibility:

10 miles


Aviation Observations:

KPHX 190951Z 09007KT 10SM FEW120 16/05 A2994 RMK AO2 SLP125 T01610050 =

National Weather Service Forecast:
Greater Phoenix Area


Visit the IPS Meteostar Home Page